sensor_id;sensor_type;location;lat;lon;timestamp;temperature;humidity
52609;DHT22;38503;48.544;12.142;2023-03-08T00:02:04;3.10;99.90
52609;DHT22;38503;48.544;12.142;2023-03-08T00:04:31;3.00;99.90
52609;DHT22;38503;48.544;12.142;2023-03-08T00:06:58;3.00;99.90
52609;DHT22;38503;48.544;12.142;2023-03-08T00:09:24;3.00;99.90
52609;DHT22;38503;48.544;12.142;2023-03-08T00:11:51;3.00;99.90
52609;DHT22;38503;48.544;12.142;2023-03-08T00:14:18;3.00;99.90
52609;DHT22;38503;48.544;12.142;2023-03-08T00:16:46;3.00;99.90
52609;DHT22;38503;48.544;12.142;2023-03-08T00:19:13;2.90;99.90
52609;DHT22;38503;48.544;12.142;2023-03-08T00:21:40;2.90;99.90
52609;DHT22;38503;48.544;12.142;2023-03-08T00:24:06;2.90;99.90
52609;DHT22;38503;48.544;12.142;2023-03-08T00:26:33;2.90;99.90
52609;DHT22;38503;48.544;12.142;2023-03-08T00:29:00;2.90;99.90
52609;DHT22;38503;48.544;12.142;2023-03-08T00:31:27;3.00;99.90
52609;DHT22;38503;48.544;12.142;2023-03-08T00:33:54;2.90;99.90
52609;DHT22;38503;48.544;12.142;2023-03-08T00:36:21;2.90;99.90
52609;DHT22;38503;48.544;12.142;2023-03-08T00:38:48;2.90;99.90
52609;DHT22;38503;48.544;12.142;2023-03-08T00:41:17;2.90;99.90
52609;DHT22;38503;48.544;12.142;2023-03-08T00:43:44;2.90;99.90
52609;DHT22;38503;48.544;12.142;2023-03-08T00:46:12;2.90;99.90
52609;DHT22;38503;48.544;12.142;2023-03-08T00:48:40;3.00;99.90
52609;DHT22;38503;48.544;12.142;2023-03-08T00:51:07;3.00;99.90
52609;DHT22;38503;48.544;12.142;2023-03-08T00:53:34;3.00;99.90
52609;DHT22;38503;48.544;12.142;2023-03-08T00:56:01;3.10;99.90
52609;DHT22;38503;48.544;12.142;2023-03-08T00:58:29;3.10;99.90
52609;DHT22;38503;48.544;12.142;2023-03-08T01:00:57;3.20;99.90
52609;DHT22;38503;48.544;12.142;2023-03-08T01:03:25;3.20;99.90
52609;DHT22;38503;48.544;12.142;2023-03-08T01:05:54;3.20;99.90
52609;DHT22;38503;48.544;12.142;2023-03-08T01:08:22;3.20;99.90
52609;DHT22;38503;48.544;12.142;2023-03-08T01:10:54;3.20;99.90
52609;DHT22;38503;48.544;12.142;2023-03-08T01:13:30;3.30;99.90
52609;DHT22;38503;48.544;12.142;2023-03-08T01:15:58;3.30;99.90
52609;DHT22;38503;48.544;12.142;2023-03-08T01:18:25;3.30;99.90
52609;DHT22;38503;48.544;12.142;2023-03-08T01:20:59;3.30;99.90
52609;DHT22;38503;48.544;12.142;2023-03-08T01:23:26;3.30;99.90
52609;DHT22;38503;48.544;12.142;2023-03-08T01:25:58;3.30;14.70
52609;DHT22;38503;48.544;12.142;2023-03-08T01:28:25;3.40;1.00
52609;DHT22;38503;48.544;12.142;2023-03-08T01:30:52;3.40;27.80
52609;DHT22;38503;48.544;12.142;2023-03-08T01:33:19;3.50;1.00
52609;DHT22;38503;48.544;12.142;2023-03-08T01:35:47;3.50;1.00
52609;DHT22;38503;48.544;12.142;2023-03-08T01:38:13;3.60;1.00
52609;DHT22;38503;48.544;12.142;2023-03-08T01:40:40;3.50;1.00
52609;DHT22;38503;48.544;12.142;2023-03-08T01:43:38;3.50;1.00
52609;DHT22;38503;48.544;12.142;2023-03-08T01:46:09;3.50;1.00
52609;DHT22;38503;48.544;12.142;2023-03-08T01:48:42;3.50;1.00
52609;DHT22;38503;48.544;12.142;2023-03-08T01:51:11;3.50;4.40
52609;DHT22;38503;48.544;12.142;2023-03-08T01:53:40;3.40;1.00
52609;DHT22;38503;48.544;12.142;2023-03-08T01:56:10;3.50;1.00
52609;DHT22;38503;48.544;12.142;2023-03-08T01:58:39;3.50;34.10
52609;DHT22;38503;48.544;12.142;2023-03-08T02:01:07;3.40;72.40
52609;DHT22;38503;48.544;12.142;2023-03-08T02:03:34;3.30;99.90
52609;DHT22;38503;48.544;12.142;2023-03-08T02:06:01;3.30;99.90
52609;DHT22;38503;48.544;12.142;2023-03-08T02:08:31;3.30;99.90
52609;DHT22;38503;48.544;12.142;2023-03-08T02:10:58;3.20;99.90
52609;DHT22;38503;48.544;12.142;2023-03-08T02:13:26;3.30;99.90
52609;DHT22;38503;48.544;12.142;2023-03-08T02:15:54;3.30;99.90
52609;DHT22;38503;48.544;12.142;2023-03-08T02:18:22;3.30;99.90
52609;DHT22;38503;48.544;12.142;2023-03-08T02:20:49;3.20;99.90
52609;DHT22;38503;48.544;12.142;2023-03-08T02:23:22;3.20;99.90
52609;DHT22;38503;48.544;12.142;2023-03-08T02:25:53;3.10;1.00
52609;DHT22;38503;48.544;12.142;2023-03-08T02:28:23;3.10;1.00
52609;DHT22;38503;48.544;12.142;2023-03-08T02:30:50;3.00;1.00
52609;DHT22;38503;48.544;12.142;2023-03-08T02:33:17;2.90;1.00
52609;DHT22;38503;48.544;12.142;2023-03-08T02:35:44;2.90;1.00
52609;DHT22;38503;48.544;12.142;2023-03-08T02:38:13;2.90;1.00
52609;DHT22;38503;48.544;12.142;2023-03-08T02:40:40;2.90;1.00
52609;DHT22;38503;48.544;12.142;2023-03-08T02:43:07;2.80;1.00
52609;DHT22;38503;48.544;12.142;2023-03-08T02:45:34;2.80;1.00
52609;DHT22;38503;48.544;12.142;2023-03-08T02:48:02;2.90;1.00
52609;DHT22;38503;48.544;12.142;2023-03-08T02:50:29;2.90;1.00
52609;DHT22;38503;48.544;12.142;2023-03-08T02:52:57;2.90;1.00
52609;DHT22;38503;48.544;12.142;2023-03-08T02:55:24;3.00;1.00
52609;DHT22;38503;48.544;12.142;2023-03-08T02:57:51;3.00;1.00
52609;DHT22;38503;48.544;12.142;2023-03-08T03:00:18;3.10;1.00
52609;DHT22;38503;48.544;12.142;2023-03-08T03:02:45;3.10;1.00
52609;DHT22;38503;48.544;12.142;2023-03-08T03:05:12;3.10;1.00
52609;DHT22;38503;48.544;12.142;2023-03-08T03:07:40;3.00;1.00
52609;DHT22;38503;48.544;12.142;2023-03-08T03:10:09;3.00;1.00
52609;DHT22;38503;48.544;12.142;2023-03-08T03:12:36;3.00;1.00
52609;DHT22;38503;48.544;12.142;2023-03-08T03:15:04;3.00;1.00
52609;DHT22;38503;48.544;12.142;2023-03-08T03:17:31;2.90;1.00
52609;DHT22;38503;48.544;12.142;2023-03-08T03:19:58;2.90;1.00
52609;DHT22;38503;48.544;12.142;2023-03-08T03:22:26;2.90;1.00
52609;DHT22;38503;48.544;12.142;2023-03-08T03:24:53;2.90;1.00
52609;DHT22;38503;48.544;12.142;2023-03-08T03:27:20;2.90;1.00
52609;DHT22;38503;48.544;12.142;2023-03-08T03:29:47;2.90;1.00
52609;DHT22;38503;48.544;12.142;2023-03-08T03:32:14;2.80;1.00
52609;DHT22;38503;48.544;12.142;2023-03-08T03:34:40;2.80;1.00
52609;DHT22;38503;48.544;12.142;2023-03-08T03:37:07;2.80;1.00
52609;DHT22;38503;48.544;12.142;2023-03-08T03:39:37;2.70;1.00
52609;DHT22;38503;48.544;12.142;2023-03-08T03:42:05;2.70;1.00
52609;DHT22;38503;48.544;12.142;2023-03-08T03:44:32;2.60;1.00
52609;DHT22;38503;48.544;12.142;2023-03-08T03:46:59;2.60;1.00
52609;DHT22;38503;48.544;12.142;2023-03-08T03:49:26;2.50;1.00
52609;DHT22;38503;48.544;12.142;2023-03-08T03:51:53;2.50;1.00
52609;DHT22;38503;48.544;12.142;2023-03-08T03:54:20;2.50;1.00
52609;DHT22;38503;48.544;12.142;2023-03-08T03:56:46;2.40;1.00
52609;DHT22;38503;48.544;12.142;2023-03-08T03:59:13;2.40;1.00
52609;DHT22;38503;48.544;12.142;2023-03-08T04:01:40;2.30;1.00
52609;DHT22;38503;48.544;12.142;2023-03-08T04:04:08;2.30;1.00
52609;DHT22;38503;48.544;12.142;2023-03-08T04:06:35;2.30;1.00
52609;DHT22;38503;48.544;12.142;2023-03-08T04:09:07;2.20;1.00
52609;DHT22;38503;48.544;12.142;2023-03-08T04:11:37;2.20;1.00
52609;DHT22;38503;48.544;12.142;2023-03-08T04:14:05;2.10;1.00
52609;DHT22;38503;48.544;12.142;2023-03-08T04:16:34;2.10;1.00
52609;DHT22;38503;48.544;12.142;2023-03-08T04:19:04;2.10;1.00
52609;DHT22;38503;48.544;12.142;2023-03-08T04:21:32;2.10;1.00
52609;DHT22;38503;48.544;12.142;2023-03-08T04:23:59;2.00;1.00
52609;DHT22;38503;48.544;12.142;2023-03-08T04:26:26;1.80;1.00
52609;DHT22;38503;48.544;12.142;2023-03-08T04:28:54;1.90;1.00
52609;DHT22;38503;48.544;12.142;2023-03-08T04:31:26;1.90;1.00
52609;DHT22;38503;48.544;12.142;2023-03-08T04:33:54;1.80;1.00
52609;DHT22;38503;48.544;12.142;2023-03-08T04:36:21;1.80;1.00
52609;DHT22;38503;48.544;12.142;2023-03-08T04:38:49;1.70;1.00
52609;DHT22;38503;48.544;12.142;2023-03-08T04:41:16;1.70;1.00
52609;DHT22;38503;48.544;12.142;2023-03-08T04:46:15;1.60;1.00
52609;DHT22;38503;48.544;12.142;2023-03-08T04:48:42;1.60;1.00
52609;DHT22;38503;48.544;12.142;2023-03-08T04:51:11;1.70;1.00
52609;DHT22;38503;48.544;12.142;2023-03-08T04:53:38;1.70;1.00
52609;DHT22;38503;48.544;12.142;2023-03-08T04:56:08;1.70;1.00
52609;DHT22;38503;48.544;12.142;2023-03-08T04:58:35;1.70;1.00
52609;DHT22;38503;48.544;12.142;2023-03-08T05:01:17;1.60;1.00
52609;DHT22;38503;48.544;12.142;2023-03-08T05:03:44;1.70;1.00
52609;DHT22;38503;48.544;12.142;2023-03-08T05:06:12;1.70;1.00
52609;DHT22;38503;48.544;12.142;2023-03-08T05:08:42;1.70;1.00
52609;DHT22;38503;48.544;12.142;2023-03-08T05:11:09;1.70;1.00
52609;DHT22;38503;48.544;12.142;2023-03-08T05:13:37;1.70;1.00
52609;DHT22;38503;48.544;12.142;2023-03-08T05:16:05;1.80;1.00
52609;DHT22;38503;48.544;12.142;2023-03-08T05:18:33;1.80;1.00
52609;DHT22;38503;48.544;12.142;2023-03-08T05:21:07;1.80;1.00
52609;DHT22;38503;48.544;12.142;2023-03-08T05:23:35;1.90;1.00
52609;DHT22;38503;48.544;12.142;2023-03-08T05:26:04;1.90;1.00
52609;DHT22;38503;48.544;12.142;2023-03-08T05:28:34;1.90;1.00
52609;DHT22;38503;48.544;12.142;2023-03-08T05:31:17;1.90;1.00
52609;DHT22;38503;48.544;12.142;2023-03-08T05:33:47;2.00;1.00
52609;DHT22;38503;48.544;12.142;2023-03-08T05:36:15;2.00;1.00
52609;DHT22;38503;48.544;12.142;2023-03-08T05:38:43;2.10;1.00
52609;DHT22;38503;48.544;12.142;2023-03-08T05:41:15;2.20;1.00
52609;DHT22;38503;48.544;12.142;2023-03-08T05:43:42;2.20;1.00
52609;DHT22;38503;48.544;12.142;2023-03-08T05:46:16;2.30;1.00
52609;DHT22;38503;48.544;12.142;2023-03-08T05:48:44;2.30;1.00
52609;DHT22;38503;48.544;12.142;2023-03-08T05:51:13;2.30;1.00
52609;DHT22;38503;48.544;12.142;2023-03-08T05:53:41;2.40;1.00
52609;DHT22;38503;48.544;12.142;2023-03-08T05:56:13;2.40;1.00
52609;DHT22;38503;48.544;12.142;2023-03-08T05:58:40;2.40;1.00
52609;DHT22;38503;48.544;12.142;2023-03-08T06:01:21;2.50;1.00
52609;DHT22;38503;48.544;12.142;2023-03-08T06:03:50;2.50;1.00
52609;DHT22;38503;48.544;12.142;2023-03-08T06:06:19;2.50;1.00
52609;DHT22;38503;48.544;12.142;2023-03-08T06:08:47;2.50;1.00
52609;DHT22;38503;48.544;12.142;2023-03-08T06:11:14;2.60;1.00
52609;DHT22;38503;48.544;12.142;2023-03-08T06:13:41;2.60;1.00
52609;DHT22;38503;48.544;12.142;2023-03-08T06:16:09;2.60;1.00
52609;DHT22;38503;48.544;12.142;2023-03-08T06:18:37;2.70;1.00
52609;DHT22;38503;48.544;12.142;2023-03-08T06:21:06;2.80;1.00
52609;DHT22;38503;48.544;12.142;2023-03-08T06:23:34;2.90;1.00
52609;DHT22;38503;48.544;12.142;2023-03-08T06:26:03;2.90;1.00
52609;DHT22;38503;48.544;12.142;2023-03-08T06:28:30;2.90;1.00
52609;DHT22;38503;48.544;12.142;2023-03-08T06:30:57;2.80;1.00
52609;DHT22;38503;48.544;12.142;2023-03-08T06:33:26;2.90;1.00
52609;DHT22;38503;48.544;12.142;2023-03-08T06:36:09;2.90;1.00
52609;DHT22;38503;48.544;12.142;2023-03-08T06:38:38;3.00;1.00
52609;DHT22;38503;48.544;12.142;2023-03-08T06:41:06;2.90;1.00
52609;DHT22;38503;48.544;12.142;2023-03-08T06:43:34;2.90;1.00
52609;DHT22;38503;48.544;12.142;2023-03-08T06:46:10;2.90;1.00
52609;DHT22;38503;48.544;12.142;2023-03-08T06:48:39;3.00;1.00
52609;DHT22;38503;48.544;12.142;2023-03-08T06:51:06;3.00;1.00
52609;DHT22;38503;48.544;12.142;2023-03-08T06:53:33;3.00;1.00
52609;DHT22;38503;48.544;12.142;2023-03-08T06:56:08;3.10;1.00
52609;DHT22;38503;48.544;12.142;2023-03-08T06:58:36;3.20;1.00
52609;DHT22;38503;48.544;12.142;2023-03-08T07:01:04;3.20;1.00
52609;DHT22;38503;48.544;12.142;2023-03-08T07:03:32;3.20;1.00
52609;DHT22;38503;48.544;12.142;2023-03-08T07:06:04;3.30;1.00
52609;DHT22;38503;48.544;12.142;2023-03-08T07:08:32;3.30;1.00
52609;DHT22;38503;48.544;12.142;2023-03-08T07:10:58;3.40;1.00
52609;DHT22;38503;48.544;12.142;2023-03-08T07:13:26;3.50;1.00
52609;DHT22;38503;48.544;12.142;2023-03-08T07:15:55;3.40;1.00
52609;DHT22;38503;48.544;12.142;2023-03-08T07:18:22;3.10;1.00
52609;DHT22;38503;48.544;12.142;2023-03-08T07:20:55;3.40;1.00
52609;DHT22;38503;48.544;12.142;2023-03-08T07:23:22;3.50;1.00
52609;DHT22;38503;48.544;12.142;2023-03-08T07:25:50;3.60;1.00
52609;DHT22;38503;48.544;12.142;2023-03-08T07:28:16;3.50;1.00
52609;DHT22;38503;48.544;12.142;2023-03-08T07:30:47;3.50;1.00
52609;DHT22;38503;48.544;12.142;2023-03-08T07:33:15;3.60;1.00
52609;DHT22;38503;48.544;12.142;2023-03-08T07:35:41;3.70;1.00
52609;DHT22;38503;48.544;12.142;2023-03-08T07:38:10;3.60;1.00
52609;DHT22;38503;48.544;12.142;2023-03-08T07:40:38;3.70;1.00
52609;DHT22;38503;48.544;12.142;2023-03-08T07:43:05;3.70;1.00
52609;DHT22;38503;48.544;12.142;2023-03-08T07:45:31;3.70;1.00
52609;DHT22;38503;48.544;12.142;2023-03-08T07:47:58;3.70;1.00
52609;DHT22;38503;48.544;12.142;2023-03-08T07:50:26;3.80;1.00
52609;DHT22;38503;48.544;12.142;2023-03-08T07:52:52;3.80;1.00
52609;DHT22;38503;48.544;12.142;2023-03-08T07:55:19;3.90;1.00
52609;DHT22;38503;48.544;12.142;2023-03-08T07:57:46;3.90;1.00
52609;DHT22;38503;48.544;12.142;2023-03-08T08:00:13;3.90;1.00
52609;DHT22;38503;48.544;12.142;2023-03-08T08:02:40;4.00;1.00
52609;DHT22;38503;48.544;12.142;2023-03-08T08:05:07;4.10;1.00
52609;DHT22;38503;48.544;12.142;2023-03-08T08:07:34;4.10;1.00
52609;DHT22;38503;48.544;12.142;2023-03-08T08:10:01;4.20;1.00
52609;DHT22;38503;48.544;12.142;2023-03-08T08:12:28;4.40;1.00
52609;DHT22;38503;48.544;12.142;2023-03-08T08:14:55;4.40;1.00
52609;DHT22;38503;48.544;12.142;2023-03-08T08:17:22;4.60;1.00
52609;DHT22;38503;48.544;12.142;2023-03-08T08:19:48;4.70;1.00
52609;DHT22;38503;48.544;12.142;2023-03-08T08:22:15;4.80;1.00
52609;DHT22;38503;48.544;12.142;2023-03-08T08:24:42;4.90;1.00
52609;DHT22;38503;48.544;12.142;2023-03-08T08:27:09;5.00;1.00
52609;DHT22;38503;48.544;12.142;2023-03-08T08:29:36;5.10;1.00
52609;DHT22;38503;48.544;12.142;2023-03-08T08:32:03;5.20;1.00
52609;DHT22;38503;48.544;12.142;2023-03-08T08:34:30;5.40;1.00
52609;DHT22;38503;48.544;12.142;2023-03-08T08:36:57;5.40;1.00
52609;DHT22;38503;48.544;12.142;2023-03-08T08:39:24;5.50;1.00
52609;DHT22;38503;48.544;12.142;2023-03-08T08:41:51;5.60;1.00
52609;DHT22;38503;48.544;12.142;2023-03-08T08:44:17;5.70;99.90
52609;DHT22;38503;48.544;12.142;2023-03-08T08:46:44;5.80;99.90
52609;DHT22;38503;48.544;12.142;2023-03-08T08:49:11;5.70;1.00
52609;DHT22;38503;48.544;12.142;2023-03-08T08:51:38;5.80;1.00
52609;DHT22;38503;48.544;12.142;2023-03-08T08:54:04;5.80;1.00
52609;DHT22;38503;48.544;12.142;2023-03-08T08:56:31;5.90;1.00
52609;DHT22;38503;48.544;12.142;2023-03-08T08:59:00;6.10;1.00
52609;DHT22;38503;48.544;12.142;2023-03-08T09:01:29;5.90;1.00
52609;DHT22;38503;48.544;12.142;2023-03-08T09:03:56;6.10;1.00
52609;DHT22;38503;48.544;12.142;2023-03-08T09:06:24;6.00;1.00
52609;DHT22;38503;48.544;12.142;2023-03-08T09:08:53;5.80;1.00
52609;DHT22;38503;48.544;12.142;2023-03-08T09:11:21;5.70;1.00
52609;DHT22;38503;48.544;12.142;2023-03-08T09:13:48;5.60;1.00
52609;DHT22;38503;48.544;12.142;2023-03-08T09:16:26;5.60;1.00
52609;DHT22;38503;48.544;12.142;2023-03-08T09:18:54;5.70;1.00
52609;DHT22;38503;48.544;12.142;2023-03-08T09:21:22;5.80;1.00
52609;DHT22;38503;48.544;12.142;2023-03-08T09:23:49;5.70;1.00
52609;DHT22;38503;48.544;12.142;2023-03-08T09:26:17;5.80;1.00
52609;DHT22;38503;48.544;12.142;2023-03-08T09:28:44;5.90;1.00
52609;DHT22;38503;48.544;12.142;2023-03-08T09:31:12;5.90;1.00
52609;DHT22;38503;48.544;12.142;2023-03-08T09:33:47;5.80;1.00
52609;DHT22;38503;48.544;12.142;2023-03-08T09:36:15;5.60;1.00
52609;DHT22;38503;48.544;12.142;2023-03-08T09:38:42;5.70;1.00
52609;DHT22;38503;48.544;12.142;2023-03-08T09:43:55;5.60;1.00
52609;DHT22;38503;48.544;12.142;2023-03-08T09:46:31;5.60;1.00
52609;DHT22;38503;48.544;12.142;2023-03-08T09:49:01;5.50;1.00
52609;DHT22;38503;48.544;12.142;2023-03-08T09:51:34;5.60;1.00
52609;DHT22;38503;48.544;12.142;2023-03-08T09:54:05;5.60;1.00
52609;DHT22;38503;48.544;12.142;2023-03-08T09:56:46;5.70;1.00
52609;DHT22;38503;48.544;12.142;2023-03-08T09:59:20;5.70;1.00
52609;DHT22;38503;48.544;12.142;2023-03-08T10:02:23;5.70;1.00
52609;DHT22;38503;48.544;12.142;2023-03-08T10:10:32;5.70;1.00
52609;DHT22;38503;48.544;12.142;2023-03-08T10:13:07;5.80;1.00
52609;DHT22;38503;48.544;12.142;2023-03-08T10:15:48;5.80;1.00
52609;DHT22;38503;48.544;12.142;2023-03-08T10:18:32;5.80;1.00
52609;DHT22;38503;48.544;12.142;2023-03-08T10:21:01;5.80;1.00
52609;DHT22;38503;48.544;12.142;2023-03-08T10:23:30;5.80;1.00
52609;DHT22;38503;48.544;12.142;2023-03-08T10:25:59;5.80;1.00
52609;DHT22;38503;48.544;12.142;2023-03-08T10:28:27;5.90;1.00
52609;DHT22;38503;48.544;12.142;2023-03-08T10:30:59;5.90;1.00
52609;DHT22;38503;48.544;12.142;2023-03-08T10:33:33;5.90;1.00
52609;DHT22;38503;48.544;12.142;2023-03-08T10:36:15;5.90;1.00
52609;DHT22;38503;48.544;12.142;2023-03-08T10:38:43;5.90;1.00
52609;DHT22;38503;48.544;12.142;2023-03-08T10:41:15;5.80;1.00
52609;DHT22;38503;48.544;12.142;2023-03-08T10:43:48;5.80;1.00
52609;DHT22;38503;48.544;12.142;2023-03-08T10:46:26;5.80;1.00
52609;DHT22;38503;48.544;12.142;2023-03-08T10:49:06;5.80;1.00
52609;DHT22;38503;48.544;12.142;2023-03-08T10:51:33;5.80;1.00
52609;DHT22;38503;48.544;12.142;2023-03-08T10:54:03;5.80;1.00
52609;DHT22;38503;48.544;12.142;2023-03-08T10:59:31;5.60;1.00
52609;DHT22;38503;48.544;12.142;2023-03-08T11:04:55;5.60;1.00
52609;DHT22;38503;48.544;12.142;2023-03-08T11:07:26;5.60;1.00
52609;DHT22;38503;48.544;12.142;2023-03-08T11:10:17;5.40;1.00
52609;DHT22;38503;48.544;12.142;2023-03-08T11:12:45;5.20;1.00
52609;DHT22;38503;48.544;12.142;2023-03-08T11:17:52;4.90;42.40
52609;DHT22;38503;48.544;12.142;2023-03-08T11:20:25;4.70;63.20
52609;DHT22;38503;48.544;12.142;2023-03-08T12:00:55;4.80;99.90
52609;DHT22;38503;48.544;12.142;2023-03-08T12:03:30;4.80;99.90
52609;DHT22;38503;48.544;12.142;2023-03-08T12:06:04;4.80;99.90
52609;DHT22;38503;48.544;12.142;2023-03-08T12:08:49;4.80;99.90
52609;DHT22;38503;48.544;12.142;2023-03-08T12:13:57;4.90;99.90
52609;DHT22;38503;48.544;12.142;2023-03-08T12:19:43;4.80;99.90
52609;DHT22;38503;48.544;12.142;2023-03-08T12:29:59;5.20;99.90
52609;DHT22;38503;48.544;12.142;2023-03-08T12:32:28;5.30;99.90
52609;DHT22;38503;48.544;12.142;2023-03-08T12:35:19;5.40;99.90
52609;DHT22;38503;48.544;12.142;2023-03-08T12:37:59;5.50;99.90
52609;DHT22;38503;48.544;12.142;2023-03-08T12:43:12;5.80;96.50
52609;DHT22;38503;48.544;12.142;2023-03-08T12:45:43;5.90;96.50
52609;DHT22;38503;48.544;12.142;2023-03-08T12:48:21;6.00;91.90
52609;DHT22;38503;48.544;12.142;2023-03-08T12:51:07;6.30;90.70
52609;DHT22;38503;48.544;12.142;2023-03-08T12:56:22;7.00;90.30
52609;DHT22;38503;48.544;12.142;2023-03-08T13:01:58;7.50;57.10
52609;DHT22;38503;48.544;12.142;2023-03-08T13:04:33;7.70;53.40
52609;DHT22;38503;48.544;12.142;2023-03-08T13:07:11;8.00;47.70
52609;DHT22;38503;48.544;12.142;2023-03-08T13:17:40;8.80;33.20
52609;DHT22;38503;48.544;12.142;2023-03-08T13:28:13;8.90;26.20
52609;DHT22;38503;48.544;12.142;2023-03-08T13:30:50;8.90;9.60
52609;DHT22;38503;48.544;12.142;2023-03-08T13:33:25;9.00;28.90
52609;DHT22;38503;48.544;12.142;2023-03-08T13:36:05;9.10;27.60
52609;DHT22;38503;48.544;12.142;2023-03-08T13:38:34;9.10;15.40
52609;DHT22;38503;48.544;12.142;2023-03-08T13:41:02;9.10;31.80
52609;DHT22;38503;48.544;12.142;2023-03-08T13:43:31;9.10;28.90
52609;DHT22;38503;48.544;12.142;2023-03-08T13:46:03;9.20;1.00
52609;DHT22;38503;48.544;12.142;2023-03-08T13:48:33;9.30;1.00
52609;DHT22;38503;48.544;12.142;2023-03-08T13:51:01;9.40;1.00
52609;DHT22;38503;48.544;12.142;2023-03-08T13:53:33;9.60;1.00
52609;DHT22;38503;48.544;12.142;2023-03-08T13:56:03;9.50;1.00
52609;DHT22;38503;48.544;12.142;2023-03-08T13:58:44;9.50;1.00
52609;DHT22;38503;48.544;12.142;2023-03-08T14:01:15;9.40;1.00
52609;DHT22;38503;48.544;12.142;2023-03-08T14:03:43;9.40;19.90
52609;DHT22;38503;48.544;12.142;2023-03-08T14:06:28;9.40;15.00
52609;DHT22;38503;48.544;12.142;2023-03-08T14:08:56;9.30;1.00
52609;DHT22;38503;48.544;12.142;2023-03-08T14:11:30;9.40;1.00
52609;DHT22;38503;48.544;12.142;2023-03-08T14:13:58;9.40;1.40
52609;DHT22;38503;48.544;12.142;2023-03-08T14:19:09;9.50;1.00
52609;DHT22;38503;48.544;12.142;2023-03-08T14:21:36;9.40;33.40
52609;DHT22;38503;48.544;12.142;2023-03-08T14:24:04;9.60;11.50
52609;DHT22;38503;48.544;12.142;2023-03-08T14:26:38;9.50;22.80
52609;DHT22;38503;48.544;12.142;2023-03-08T14:29:18;9.50;5.00
52609;DHT22;38503;48.544;12.142;2023-03-08T14:34:33;9.70;1.00
52609;DHT22;38503;48.544;12.142;2023-03-08T14:39:33;9.90;23.80
52609;DHT22;38503;48.544;12.142;2023-03-08T14:44:36;10.40;1.00
52609;DHT22;38503;48.544;12.142;2023-03-08T14:47:27;10.50;1.00
52609;DHT22;38503;48.544;12.142;2023-03-08T14:50:33;10.50;1.00
52609;DHT22;38503;48.544;12.142;2023-03-08T14:53:01;10.60;1.00
52609;DHT22;38503;48.544;12.142;2023-03-08T14:55:31;10.70;1.00
52609;DHT22;38503;48.544;12.142;2023-03-08T14:58:09;10.80;1.00
52609;DHT22;38503;48.544;12.142;2023-03-08T15:00:51;10.80;1.00
52609;DHT22;38503;48.544;12.142;2023-03-08T15:03:18;10.90;1.00
52609;DHT22;38503;48.544;12.142;2023-03-08T15:05:45;10.90;1.00
52609;DHT22;38503;48.544;12.142;2023-03-08T15:08:13;11.00;1.00
52609;DHT22;38503;48.544;12.142;2023-03-08T15:10:42;11.00;1.00
52609;DHT22;38503;48.544;12.142;2023-03-08T15:13:15;11.00;1.00
52609;DHT22;38503;48.544;12.142;2023-03-08T15:15:43;10.90;1.00
52609;DHT22;38503;48.544;12.142;2023-03-08T15:18:10;10.90;1.00
52609;DHT22;38503;48.544;12.142;2023-03-08T15:20:38;10.90;1.00
52609;DHT22;38503;48.544;12.142;2023-03-08T15:23:16;10.90;1.00
52609;DHT22;38503;48.544;12.142;2023-03-08T15:25:44;10.90;1.00
52609;DHT22;38503;48.544;12.142;2023-03-08T15:28:16;11.00;1.00
52609;DHT22;38503;48.544;12.142;2023-03-08T15:30:43;11.00;1.00
52609;DHT22;38503;48.544;12.142;2023-03-08T15:33:10;11.00;1.00
52609;DHT22;38503;48.544;12.142;2023-03-08T15:35:38;11.10;1.00
52609;DHT22;38503;48.544;12.142;2023-03-08T15:38:05;11.10;1.00
52609;DHT22;38503;48.544;12.142;2023-03-08T15:40:33;11.10;1.00
52609;DHT22;38503;48.544;12.142;2023-03-08T15:43:00;11.10;1.00
52609;DHT22;38503;48.544;12.142;2023-03-08T15:45:27;11.20;1.00
52609;DHT22;38503;48.544;12.142;2023-03-08T15:47:58;11.10;1.00
52609;DHT22;38503;48.544;12.142;2023-03-08T15:50:26;11.20;1.00
52609;DHT22;38503;48.544;12.142;2023-03-08T15:52:54;11.30;1.00
52609;DHT22;38503;48.544;12.142;2023-03-08T15:55:22;11.20;1.00
52609;DHT22;38503;48.544;12.142;2023-03-08T15:57:49;11.10;1.00
52609;DHT22;38503;48.544;12.142;2023-03-08T16:00:18;11.20;1.00
52609;DHT22;38503;48.544;12.142;2023-03-08T16:02:45;11.20;1.00
52609;DHT22;38503;48.544;12.142;2023-03-08T16:05:13;11.10;1.00
52609;DHT22;38503;48.544;12.142;2023-03-08T16:07:41;11.10;1.00
52609;DHT22;38503;48.544;12.142;2023-03-08T16:10:11;11.10;1.00
52609;DHT22;38503;48.544;12.142;2023-03-08T16:12:39;11.00;1.00
52609;DHT22;38503;48.544;12.142;2023-03-08T16:15:06;11.00;1.00
52609;DHT22;38503;48.544;12.142;2023-03-08T16:17:34;11.00;1.00
52609;DHT22;38503;48.544;12.142;2023-03-08T16:20:01;11.10;1.00
52609;DHT22;38503;48.544;12.142;2023-03-08T16:22:34;11.10;1.00
52609;DHT22;38503;48.544;12.142;2023-03-08T16:25:01;11.00;1.00
52609;DHT22;38503;48.544;12.142;2023-03-08T16:27:29;11.10;1.00
52609;DHT22;38503;48.544;12.142;2023-03-08T16:30:02;11.00;1.00
52609;DHT22;38503;48.544;12.142;2023-03-08T16:32:29;11.00;1.00
52609;DHT22;38503;48.544;12.142;2023-03-08T16:34:57;11.00;1.00
52609;DHT22;38503;48.544;12.142;2023-03-08T16:37:25;11.00;1.00
52609;DHT22;38503;48.544;12.142;2023-03-08T16:39:52;11.00;1.00
52609;DHT22;38503;48.544;12.142;2023-03-08T16:42:28;10.90;1.00
52609;DHT22;38503;48.544;12.142;2023-03-08T16:44:55;10.90;1.00
52609;DHT22;38503;48.544;12.142;2023-03-08T16:47:23;10.80;1.00
52609;DHT22;38503;48.544;12.142;2023-03-08T16:49:50;10.80;1.00
52609;DHT22;38503;48.544;12.142;2023-03-08T16:52:16;10.70;1.00
52609;DHT22;38503;48.544;12.142;2023-03-08T16:54:44;10.70;1.00
52609;DHT22;38503;48.544;12.142;2023-03-08T16:57:12;10.60;1.00
52609;DHT22;38503;48.544;12.142;2023-03-08T16:59:45;10.50;1.00
52609;DHT22;38503;48.544;12.142;2023-03-08T17:02:14;10.50;1.00
52609;DHT22;38503;48.544;12.142;2023-03-08T17:04:42;10.40;1.00
52609;DHT22;38503;48.544;12.142;2023-03-08T17:07:10;10.40;1.00
52609;DHT22;38503;48.544;12.142;2023-03-08T17:09:37;10.40;1.00
52609;DHT22;38503;48.544;12.142;2023-03-08T17:12:05;10.40;1.00
52609;DHT22;38503;48.544;12.142;2023-03-08T17:14:33;10.40;1.00
52609;DHT22;38503;48.544;12.142;2023-03-08T17:17:01;10.40;1.00
52609;DHT22;38503;48.544;12.142;2023-03-08T17:19:28;10.30;1.00
52609;DHT22;38503;48.544;12.142;2023-03-08T17:21:55;10.20;1.00
52609;DHT22;38503;48.544;12.142;2023-03-08T17:24:21;10.10;1.00
52609;DHT22;38503;48.544;12.142;2023-03-08T17:26:49;10.20;1.00
52609;DHT22;38503;48.544;12.142;2023-03-08T17:29:18;10.10;1.00
52609;DHT22;38503;48.544;12.142;2023-03-08T17:31:45;10.10;1.00
52609;DHT22;38503;48.544;12.142;2023-03-08T17:34:12;10.10;1.00
52609;DHT22;38503;48.544;12.142;2023-03-08T17:36:39;10.10;1.00
52609;DHT22;38503;48.544;12.142;2023-03-08T17:39:07;10.10;1.00
52609;DHT22;38503;48.544;12.142;2023-03-08T17:41:34;10.10;1.00